Eunice, LA (70535)

5:57 PM CDT on July 28, 2016 (GMT -0500)
Cross D Ranch | | Change Station

Elev 49 ft 30.44 °N, 92.33 °W | Updated 56 seconds ago

Clear
Clear
81.7 °F
Feels Like 88 °F
N
7.0
Wind Variable Wind from NE
Gusts 9.0 mph

Today
High -- | Low -- °F
--% Chance of Precip.
Yesterday
High -- | Low -- °F
Precip. -- in
Pressure 30.00 in
Visibility 10.0 miles
Clouds Clear
Heat Index 88 °F
Dew Point 75 °F
Humidity 80%
Rainfall 0.00 in
Snow Depth Not available.
6:25 AM 8:06 PM
Waning Crescent, 28% visible
METAR KOPL 282235Z AUTO 03010G18KT 10SM CLR 27/22 A3000 RMK AO2 LTG DSNT SW AND W T02730221 PWINO
Pressure 30.00 in
Visibility 10.0 miles
Clouds Clear
Heat Index 88 °F
Dew Point 75 °F
Humidity 80%
Rainfall 0.00 in
Snow Depth Not available.
6:25 AM 8:06 PM
Waning Crescent, 28% visible
METAR KOPL 282235Z AUTO 03010G18KT 10SM CLR 27/22 A3000 RMK AO2 LTG DSNT SW AND W T02730221 PWINO

10-Day Weather Forecast

Almanac

Astronomy

Jul. 28, 2016 Rise Set
Actual Time
Civil Twilight
Nautical Twilight
Astronomical Twilight
Moon
Length of Visible Light
Length of Day
Tomorrow will be .
, % of the Moon is Illuminated

Today's Extremes

State Highs State Lows

Community

WunderPhotos

Upload Photos

1,928,220 photos uploaded!

WunderBlog® & News

Nearby

Air Quality

  Air Quality AQ Index Pollutant
Not available.

Snow Depth

Station Depth Elevation

Earthquake Activity

City Distance Mag. Time & Date
Minimum magnitude displayed is 2.5.

Coastal Water Temperatures

Place Temperature

Stations

Nearby Weather Stations

Station Location Temp. Windchill Dew Point Humidity Wind Precip. Elev Updated Type
                   

Watches & Warnings

There are currently no watches in effect.